Lähistön asemien METAR-raportit

 

EFJY - Jyvaskyla (mil/C, Finland
Etäisyys Sääasemalta: E 40km
Päivitetty: 04/07/2022 00:20
Selkeätä
Selkeätä
 Tuulen suunta varies
Tuuli: varies 2 km/h
Lämpötila: 11°C
Kastepiste: 10°C
Ilmankosteus: 94%
Ilmanpaine: 1017 hPa
Yhteenveto: Selkeätä
Näkyvyys: Enemmän Kuin 10 km
2022/07/04 00:20 EFJY 040020Z AUTO VRB01KT CAVOK 11/10 Q1017
EFKU - Kuopio (mil/Civ), Finland
Etäisyys Sääasemalta: IKo 106km
Päivitetty: 04/07/2022 00:20
Selkeätä
Selkeätä
 Tuulen suunta L
Tuuli: L 7 km/h
Lämpötila: 19°C
Kastepiste: 13°C
Ilmankosteus: 68%
Ilmanpaine: 1015 hPa
Yhteenveto: Selkeätä
Näkyvyys: Enemmän Kuin 10 km
2022/07/04 00:20 EFKU 040020Z AUTO 28004KT 250V310 CAVOK 19/13 Q1015
EFHA - Halli (fin-Afb), Finland
Etäisyys Sääasemalta: ELo 113km
Päivitetty: 04/07/2022 00:20
Selkeätä
Selkeätä
 Tuulen suunta L
Tuuli: L 2 km/h
Lämpötila: 13°C
Kastepiste: 11°C
Ilmankosteus: 88%
Ilmanpaine: 1017 hPa
Yhteenveto: Selkeätä
Näkyvyys: Enemmän Kuin 10 km
2022/07/04 00:20 EFHA 040020Z AUTO 27001KT CAVOK 13/11 Q1017
 
EFMI - Mikkeli, Finland
Etäisyys Sääasemalta: EKa 140km
Päivitetty: 04/07/2022 00:20
Selkeätä
Selkeätä
 Tuulen suunta L
Tuuli: L 6 km/h
Lämpötila: 14°C
Kastepiste: 14°C
Ilmankosteus: 100%
Ilmanpaine: 1017 hPa
Yhteenveto: Selkeätä
Näkyvyys: Enemmän Kuin 10 km
2022/07/04 00:20 EFMI 040020Z AUTO 27003KT CAVOK 14/14 Q1017
EFSI - Seinajoki-Ilmajo, Finland
Etäisyys Sääasemalta: L 150km
Päivitetty: 04/07/2022 00:20
Lähistöllä Sadekuuroja, Ukkospilviä
Lähistöllä Sadekuuroja, Ukkospilviä
 Tuulen suunta E
Tuuli: E 9 km/h
Lämpötila: 13°C
Kastepiste: 10°C
Ilmankosteus: 82%
Ilmanpaine: 1016 hPa
Yhteenveto: Lähistöllä Sadekuuroja
Pilvisyys: Ukkospilviä
Näkyvyys: 10 km
2022/07/04 00:20 EFSI 040020Z AUTO 17005KT 9999 VCSH //////CB 13/10 Q1016
EFKK - Kruunupyy, Finland
Etäisyys Sääasemalta: Lu 170km
Päivitetty: 04/07/2022 00:20
Selkeätä
Selkeätä
 Tuulen suunta E
Tuuli: E 11 km/h
Lämpötila: 13°C
Kastepiste: 11°C
Ilmankosteus: 88%
Ilmanpaine: 1015 hPa
Yhteenveto: Selkeätä
Näkyvyys: Enemmän Kuin 10 km
2022/07/04 00:20 EFKK 040020Z AUTO 17006KT CAVOK 13/11 Q1015
 
EFSA - Savonlinna (aut), Finland
Etäisyys Sääasemalta: IKa 186km
Päivitetty: 04/07/2022 00:20
Selkeätä
Selkeätä
 Tuulen suunta LLu
Tuuli: LLu 9 km/h
Lämpötila: 17°C
Kastepiste: 14°C
Ilmankosteus: 83%
Ilmanpaine: 1016 hPa
Yhteenveto: Selkeätä
Näkyvyys: Enemmän Kuin 10 km
2022/07/04 00:20 EFSA 040020Z AUTO 30005KT CAVOK 17/14 Q1016
EFTP - Tampere/Pirkkala, Finland
Etäisyys Sääasemalta: Lo 187km
Päivitetty: 04/07/2022 00:20
Selkeätä
Selkeätä
 Tuulen suunta EKa
Tuuli: EKa 2 km/h
Lämpötila: 12°C
Kastepiste: 11°C
Ilmankosteus: 94%
Ilmanpaine: 1017 hPa
Yhteenveto: Selkeätä
Näkyvyys: Enemmän Kuin 10 km
2022/07/04 00:20 EFTP 040020Z AUTO 16001KT CAVOK 12/11 Q1017
EFKI - Kajaani, Finland
Etäisyys Sääasemalta: PKo 192km
Päivitetty: 04/07/2022 00:20
Selkeätä
Selkeätä
 Tuulen suunta varies
Tuuli: varies 4 km/h
Lämpötila: 13°C
Kastepiste: 11°C
Ilmankosteus: 88%
Ilmanpaine: 1015 hPa
Yhteenveto: Selkeätä
Näkyvyys: Enemmän Kuin 10 km
2022/07/04 00:20 EFKI 040020Z AUTO VRB02KT CAVOK 13/11 Q1015
 
EFJO - Joensuu, Finland
Etäisyys Sääasemalta: I 196km
Päivitetty: 04/07/2022 00:20
Patches of fog, Puolipilvistä
Patches of fog, Puolipilvistä
 Tuulen suunta Tyyntä
Tuuli: Tyyntä
Lämpötila: 17°C
Kastepiste: 17°C
Ilmankosteus: 100%
Ilmanpaine: 1015 hPa
Yhteenveto: Patches of Fog
Pilvisyys: Puolipilvistä
Näkyvyys: 0 km
2022/07/04 00:20 EFJO 040020Z AUTO 00000KT 0350 R28/2000U BCFG NSC 17/17 Q1015